Time;durP1;ratioP1;P1;durP2;ratioP2;P2;SDS_P1;SDS_P2;PMS_P1;PMS_P2;Temp;Humidity;BMP_temperature;BMP_pressure;BME280_temperature;BME280_humidity;BME280_pressure;Samples;Min_cycle;Max_cycle;Signal;HPM_P1;HPM_P2
2023/10/03 00:00:39;;;;;;;19.30;3.85;;;34.70;23.90;;;;;;4974482;28;20700;-71
2023/10/03 00:03:10;;;;;;;8.95;3.38;;;34.90;23.20;;;;;;4967087;28;20226;-71
2023/10/03 00:05:38;;;;;;;7.80;3.55;;;34.70;20.20;;;;;;4972515;28;20262;-70
2023/10/03 00:08:06;;;;;;;15.35;3.72;;;35.10;23.10;;;;;;4972094;28;20651;-71
2023/10/03 00:10:38;;;;;;;13.95;4.05;;;35.20;19.60;;;;;;4982110;28;20171;-70
2023/10/03 00:13:11;;;;;;;11.73;3.10;;;35.60;18.40;;;;;;4986757;28;20643;-72
2023/10/03 00:15:43;;;;;;;9.65;3.50;;;35.50;13.00;;;;;;4983025;28;20200;-68
2023/10/03 00:18:12;;;;;;;8.90;3.00;;;35.10;13.40;;;;;;4982963;28;20218;-68
2023/10/03 00:20:41;;;;;;;6.88;3.00;;;35.30;11.80;;;;;;4979326;28;20181;-69
2023/10/03 00:23:09;;;;;;;8.02;2.80;;;35.40;11.60;;;;;;4991341;28;20970;-69
2023/10/03 00:25:38;;;;;;;9.77;3.25;;;35.60;9.20;;;;;;4991780;28;20241;-69
2023/10/03 00:28:06;;;;;;;11.00;3.17;;;35.80;10.10;;;;;;4979537;28;20231;-69
2023/10/03 00:30:40;;;;;;;21.58;3.40;;;36.40;9.20;;;;;;4976932;28;20229;-68
2023/10/03 00:33:10;;;;;;;23.05;3.33;;;37.00;10.20;;;;;;4991747;28;20225;-68
2023/10/03 00:35:40;;;;;;;9.82;3.20;;;36.80;8.70;;;;;;4988188;28;20177;-68
2023/10/03 00:38:13;;;;;;;11.23;3.33;;;36.70;7.80;;;;;;4971846;28;20186;-68
2023/10/03 00:40:41;;;;;;;10.63;3.80;;;37.20;7.80;;;;;;4978277;28;20190;-68
2023/10/03 00:43:11;;;;;;;7.78;3.00;;;37.60;7.50;;;;;;4991539;28;20221;-68
2023/10/03 00:45:39;;;;;;;12.80;3.00;;;37.60;8.80;;;;;;4991534;28;20248;-68
2023/10/03 00:48:08;;;;;;;18.23;3.25;;;37.10;13.30;;;;;;4991732;28;20186;-69
2023/10/03 00:50:37;;;;;;;9.63;2.95;;;37.10;9.60;;;;;;4985175;28;20214;-69
2023/10/03 00:53:12;;;;;;;7.40;2.60;;;37.40;9.00;;;;;;4971639;28;20689;-69
2023/10/03 00:55:43;;;;;;;30.08;4.68;;;;;;;;;;4991516;28;20179;-69
2023/10/03 01:00:49;;;;;;;8.48;2.70;;;37.60;4.40;;;;;;4985440;28;20195;-68
2023/10/03 01:03:37;;;;;;;5.60;2.70;;;37.20;3.50;;;;;;4972068;28;20174;-68
2023/10/03 01:09:29;;;;;;;7.30;2.65;;;36.70;4.50;;;;;;4971727;28;20258;-68
2023/10/03 01:11:56;;;;;;;7.30;2.53;;;36.90;6.20;;;;;;4984991;28;20218;-70
2023/10/03 01:14:26;;;;;;;8.18;2.95;;;37.00;3.70;;;;;;4991050;28;20607;-67
2023/10/03 01:16:55;;;;;;;8.55;2.80;;;37.00;2.80;;;;;;4991621;28;20187;-68
2023/10/03 01:19:26;;;;;;;9.50;2.55;;;;;;;;;;4994083;28;20186;-68
2023/10/03 01:21:54;;;;;;;7.82;2.53;;;37.00;4.90;;;;;;4981841;28;20191;-67
2023/10/03 01:24:24;;;;;;;24.73;3.78;;;37.40;5.30;;;;;;4975234;28;20178;-68
2023/10/03 01:26:54;;;;;;;10.40;2.78;;;37.10;1.00;;;;;;4975290;28;20665;-68
2023/10/03 01:29:23;;;;;;;10.00;3.05;;;37.40;1.00;;;;;;4974805;28;20279;-69
2023/10/03 01:31:52;;;;;;;6.47;2.72;;;37.50;1.00;;;;;;4986837;28;20211;-68
2023/10/03 01:34:20;;;;;;;17.15;3.17;;;36.90;1.00;;;;;;4994828;28;20178;-68
2023/10/03 01:36:48;;;;;;;48.10;5.18;;;37.00;1.00;;;;;;4994255;28;20183;-68
2023/10/03 01:39:16;;;;;;;8.30;2.55;;;36.80;1.00;;;;;;4994558;28;20269;-69
2023/10/03 01:41:43;;;;;;;18.65;3.05;;;36.90;1.00;;;;;;4983739;28;20195;-69
2023/10/03 01:44:12;;;;;;;9.35;3.45;;;36.90;1.00;;;;;;4974539;28;20262;-69
2023/10/03 01:46:40;;;;;;;8.55;3.05;;;37.10;1.00;;;;;;4975192;28;20183;-69
2023/10/03 01:49:08;;;;;;;32.38;5.68;;;37.30;1.00;;;;;;4974806;28;20183;-69
2023/10/03 01:51:36;;;;;;;9.00;2.13;;;37.70;1.00;;;;;;4983459;28;20272;-69
2023/10/03 01:54:05;;;;;;;7.38;2.13;;;37.50;1.00;;;;;;4994283;28;20182;-68
2023/10/03 01:56:34;;;;;;;20.77;2.90;;;37.40;1.00;;;;;;4975489;28;20183;-68
2023/10/03 01:59:02;;;;;;;9.38;3.00;;;37.30;1.00;;;;;;4991226;28;20237;-68
2023/10/03 02:01:29;;;;;;;8.95;2.60;;;37.30;1.00;;;;;;4983337;28;20270;-68
2023/10/03 02:03:59;;;;;;;23.30;3.17;;;37.40;1.00;;;;;;4974792;28;20261;-69
2023/10/03 02:06:27;;;;;;;37.25;4.53;;;37.60;1.00;;;;;;4974736;28;20948;-69
2023/10/03 02:08:56;;;;;;;4.72;2.45;;;37.40;1.00;;;;;;4974659;28;20191;-69
2023/10/03 02:11:26;;;;;;;6.72;2.40;;;37.10;1.00;;;;;;4981895;28;20182;-68
2023/10/03 02:13:54;;;;;;;11.18;2.70;;;37.00;1.00;;;;;;4993759;28;20277;-68
2023/10/03 02:16:23;;;;;;;6.18;2.35;;;36.80;1.00;;;;;;4994001;28;20183;-68
2023/10/03 02:18:52;;;;;;;12.32;3.08;;;37.10;1.00;;;;;;4994373;28;20266;-68
2023/10/03 02:21:19;;;;;;;5.75;2.58;;;37.60;1.00;;;;;;4985223;28;20182;-68
2023/10/03 02:23:48;;;;;;;3.25;2.25;;;37.30;1.00;;;;;;4997576;28;20560;-68
2023/10/03 02:26:16;;;;;;;8.13;2.58;;;37.10;1.00;;;;;;4951556;28;20236;-69
2023/10/03 02:28:44;;;;;;;5.07;2.13;;;37.10;1.00;;;;;;4935065;29;20234;-68
2023/10/03 02:31:11;;;;;;;9.23;2.22;;;37.40;1.00;;;;;;4938876;29;20192;-69
2023/10/03 02:33:43;;;;;;;5.80;2.20;;;37.40;1.00;;;;;;4955060;28;20265;-70
2023/10/03 02:36:11;;;;;;;7.78;2.72;;;37.30;1.00;;;;;;4954696;28;20787;-69
2023/10/03 02:38:39;;;;;;;3.67;2.30;;;37.10;1.00;;;;;;4954951;28;20190;-69
2023/10/03 02:41:07;;;;;;;4.15;1.88;;;36.60;1.00;;;;;;4951027;28;20189;-69
2023/10/03 02:43:42;;;;;;;3.50;2.03;;;36.90;1.00;;;;;;4935406;29;20191;-68
2023/10/03 02:46:12;;;;;;;4.10;2.30;;;37.20;1.00;;;;;;4935772;29;20227;-69
2023/10/03 02:48:41;;;;;;;29.95;3.17;;;37.40;1.00;;;;;;4935605;29;20196;-68
2023/10/03 02:51:10;;;;;;;4.95;2.03;;;37.20;1.00;;;;;;4938342;29;20225;-69
2023/10/03 02:53:38;;;;;;;5.40;2.50;;;37.10;1.00;;;;;;4952132;28;20733;-69
2023/10/03 02:56:07;;;;;;;13.32;2.88;;;37.20;1.00;;;;;;4933968;29;20191;-69
2023/10/03 02:58:35;;;;;;;5.85;2.28;;;37.30;1.00;;;;;;4934723;29;20733;-70
2023/10/03 03:01:03;;;;;;;7.45;2.53;;;37.30;1.00;;;;;;4937242;29;20580;-68
2023/10/03 03:06:54;;;;;;;3.85;2.08;;;37.40;1.00;;;;;;4954133;29;20239;-69
2023/10/03 03:09:23;;;;;;;6.07;2.08;;;37.40;1.00;;;;;;4954429;28;20183;-67
2023/10/03 03:11:51;;;;;;;11.65;3.17;;;37.50;1.00;;;;;;4947722;28;20214;-69
2023/10/03 03:14:19;;;;;;;7.03;2.60;;;37.30;1.00;;;;;;4935195;29;20309;-68
2023/10/03 03:16:48;;;;;;;8.05;2.72;;;37.40;1.00;;;;;;4935117;29;20725;-68
2023/10/03 03:19:15;;;;;;;5.25;2.00;;;37.60;1.00;;;;;;4934436;29;20188;-68
2023/10/03 03:21:44;;;;;;;12.55;2.97;;;37.60;1.00;;;;;;4939379;29;20642;-67
2023/10/03 03:24:17;;;;;;;3.05;1.95;;;37.50;1.00;;;;;;4954174;28;20188;-68
2023/10/03 03:26:48;;;;;;;6.72;2.17;;;37.50;1.00;;;;;;4987649;28;20231;-68
2023/10/03 03:29:22;;;;;;;9.23;2.10;;;37.40;1.00;;;;;;4992238;28;20210;-68
2023/10/03 03:31:50;;;;;;;7.15;2.05;;;37.50;1.00;;;;;;4987035;28;20211;-68
2023/10/03 03:34:18;;;;;;;11.13;2.17;;;37.60;1.00;;;;;;4972700;28;20225;-69
2023/10/03 03:36:46;;;;;;;6.80;2.20;;;37.70;1.00;;;;;;4973234;28;20175;-67
2023/10/03 03:39:15;;;;;;;20.90;3.55;;;37.70;1.00;;;;;;4972913;28;20258;-68
2023/10/03 03:41:43;;;;;;;6.57;2.35;;;37.60;1.00;;;;;;4972453;28;20716;-68
2023/10/03 03:44:12;;;;;;;2.95;1.95;;;37.70;1.00;;;;;;4973154;28;20270;-68
2023/10/03 03:46:43;;;;;;;5.38;2.35;;;37.70;1.00;;;;;;4972989;28;20203;-68
2023/10/03 03:49:14;;;;;;;3.35;1.80;;;37.70;1.00;;;;;;4974127;28;20663;-68
2023/10/03 03:51:42;;;;;;;27.52;3.47;;;37.60;1.00;;;;;;4972633;28;20230;-69
2023/10/03 03:54:12;;;;;;;7.10;2.25;;;37.50;1.00;;;;;;4972813;28;20191;-68
2023/10/03 03:56:40;;;;;;;8.48;2.00;;;37.60;1.00;;;;;;4972423;28;21006;-69
2023/10/03 03:59:09;;;;;;;6.03;2.45;;;37.50;1.00;;;;;;4979269;28;20185;-68
2023/10/03 04:01:37;;;;;;;4.63;2.10;;;37.50;1.00;;;;;;4972401;28;20193;-69
2023/10/03 04:04:12;;;;;;;6.50;2.22;;;37.40;1.00;;;;;;4972134;28;20194;-69
2023/10/03 04:06:42;;;;;;;3.92;2.28;;;37.40;1.00;;;;;;4972730;28;20172;-69
2023/10/03 04:09:10;;;;;;;6.18;1.77;;;37.30;1.00;;;;;;4979988;28;20187;-69
2023/10/03 04:11:38;;;;;;;7.32;2.13;;;37.10;1.00;;;;;;4990886;28;20190;-69
2023/10/03 04:14:07;;;;;;;8.15;2.30;;;37.10;1.00;;;;;;4992189;28;20189;-69
2023/10/03 04:16:41;;;;;;;5.05;2.15;;;37.20;1.00;;;;;;4991418;28;20232;-69
2023/10/03 04:19:10;;;;;;;6.53;2.22;;;37.60;1.00;;;;;;4979329;28;20186;-69
2023/10/03 04:21:40;;;;;;;10.77;2.53;;;37.80;1.00;;;;;;4974699;28;20186;-69
2023/10/03 04:24:10;;;;;;;10.38;2.38;;;37.60;1.00;;;;;;4984926;28;20270;-69
2023/10/03 04:26:41;;;;;;;8.55;2.47;;;37.50;1.00;;;;;;4974029;28;20231;-69
2023/10/03 04:29:13;;;;;;;9.00;2.15;;;37.30;1.00;;;;;;4966478;28;20281;-66
2023/10/03 04:31:41;;;;;;;8.43;2.55;;;37.10;1.00;;;;;;4955421;28;20191;-69
2023/10/03 04:34:11;;;;;;;10.27;3.00;;;37.10;1.00;;;;;;4965762;28;20616;-72
2023/10/03 04:36:41;;;;;;;5.20;2.20;;;37.00;1.00;;;;;;4978991;28;20202;-69
2023/10/03 04:39:11;;;;;;;4.10;2.13;;;37.10;1.00;;;;;;4978769;28;20252;-67
2023/10/03 04:41:44;;;;;;;6.40;2.13;;;37.40;1.00;;;;;;4973884;28;20645;-72
2023/10/03 04:44:15;;;;;;;7.82;3.03;;;37.50;1.00;;;;;;4991389;28;20189;-72
2023/10/03 04:46:48;;;;;;;8.13;2.40;;;37.20;1.00;;;;;;4991817;28;20175;-69
2023/10/03 04:49:16;;;;;;;5.30;2.35;;;37.20;1.00;;;;;;4983670;28;20343;-71
2023/10/03 04:51:47;;;;;;;4.20;1.83;;;37.30;1.00;;;;;;4979798;28;20310;-73
2023/10/03 04:54:16;;;;;;;55.42;5.55;;;37.40;1.00;;;;;;4994479;28;20649;-70
2023/10/03 04:56:44;;;;;;;16.92;2.97;;;37.30;1.00;;;;;;4994972;28;20329;-69
2023/10/03 04:59:12;;;;;;;8.98;2.38;;;37.10;1.00;;;;;;4995373;28;20186;-71
2023/10/03 05:01:40;;;;;;;3.75;2.15;;;37.20;1.00;;;;;;4984917;28;20179;-70
2023/10/03 05:04:08;;;;;;;23.17;3.05;;;37.20;1.00;;;;;;4994910;28;20178;-69
2023/10/03 05:06:35;;;;;;;6.43;2.60;;;36.80;1.00;;;;;;4975651;28;20210;-72
2023/10/03 05:09:04;;;;;;;18.20;3.00;;;36.80;1.00;;;;;;4975547;28;20262;-73
2023/10/03 05:11:32;;;;;;;6.30;2.20;;;36.90;1.00;;;;;;4981011;28;20189;-70
2023/10/03 05:14:00;;;;;;;33.28;4.30;;;36.90;1.00;;;;;;4977673;28;20297;-72
2023/10/03 05:16:29;;;;;;;9.55;2.40;;;36.70;1.00;;;;;;4994223;28;20183;-71
2023/10/03 05:18:57;;;;;;;15.43;2.83;;;36.50;1.00;;;;;;4977080;28;20546;-71
2023/10/03 05:21:25;;;;;;;23.63;2.83;;;36.10;1.00;;;;;;4995216;28;20187;-72
2023/10/03 05:23:52;;;;;;;17.77;2.97;;;35.90;1.00;;;;;;4995017;28;20186;-71
2023/10/03 05:26:24;;;;;;;9.15;2.22;;;36.00;1.00;;;;;;4994168;28;20223;-71
2023/10/03 05:28:55;;;;;;;17.98;3.08;;;35.80;1.00;;;;;;4994967;28;20214;-72
2023/10/03 05:31:23;;;;;;;22.60;3.35;;;35.60;1.00;;;;;;4995258;28;20546;-71
2023/10/03 05:33:53;;;;;;;4.93;2.40;;;35.50;1.00;;;;;;4978501;28;20218;-71
2023/10/03 05:36:22;;;;;;;8.30;2.78;;;35.40;1.00;;;;;;4978619;28;20175;-71
2023/10/03 05:38:50;;;;;;;4.03;2.65;;;35.40;1.00;;;;;;4957284;28;20178;-70
2023/10/03 05:41:23;;;;;;;5.55;2.42;;;35.40;1.00;;;;;;4977082;28;20190;-72
2023/10/03 05:43:51;;;;;;;3.42;2.40;;;35.40;1.00;;;;;;4993653;28;20473;-70
2023/10/03 05:46:19;;;;;;;4.90;2.33;;;35.40;1.00;;;;;;4994035;28;20178;-70
2023/10/03 05:48:47;;;;;;;8.40;2.33;;;35.30;1.00;;;;;;4994612;28;20205;-72
2023/10/03 05:51:15;;;;;;;4.00;2.28;;;35.20;1.00;;;;;;4981076;28;20206;-71
2023/10/03 05:53:42;;;;;;;2.55;2.25;;;35.10;1.00;;;;;;4974541;28;20214;-70
2023/10/03 05:56:11;;;;;;;3.00;1.73;;;35.00;1.00;;;;;;4975917;28;20551;-69
2023/10/03 05:58:43;;;;;;;9.18;2.28;;;35.00;1.00;;;;;;4993347;28;20237;-71
2023/10/03 06:01:12;;;;;;;5.13;1.92;;;34.90;1.00;;;;;;4988166;28;20229;-70
2023/10/03 06:03:40;;;;;;;4.93;2.58;;;34.90;1.00;;;;;;4979405;28;20172;-71
2023/10/03 06:06:07;;;;;;;6.60;2.28;;;34.80;1.00;;;;;;4976290;28;20555;-73
2023/10/03 06:08:35;;;;;;;7.70;2.17;;;34.80;1.00;;;;;;4993636;28;20175;-71
2023/10/03 06:11:04;;;;;;;6.63;1.90;;;34.70;1.00;;;;;;4994171;28;20178;-72
2023/10/03 06:13:32;;;;;;;7.68;2.33;;;34.60;1.00;;;;;;4994123;28;20302;-72
2023/10/03 06:16:00;;;;;;;5.43;2.20;;;34.60;1.00;;;;;;4993362;28;20179;-71
2023/10/03 06:18:27;;;;;;;2.40;1.80;;;34.50;1.00;;;;;;4991019;28;20188;-70
2023/10/03 06:20:57;;;;;;;4.28;1.40;;;34.40;1.00;;;;;;4974733;28;20215;-70
2023/10/03 06:23:25;;;;;;;6.72;2.25;;;34.30;1.00;;;;;;4957379;28;20183;-72
2023/10/03 06:25:53;;;;;;;3.33;2.10;;;34.30;1.00;;;;;;4974207;28;20259;-69
2023/10/03 06:28:21;;;;;;;5.40;2.00;;;34.30;1.00;;;;;;4974663;28;20700;-72
2023/10/03 06:30:51;;;;;;;3.75;2.05;;;34.20;1.00;;;;;;4974307;28;20183;-72
2023/10/03 06:33:19;;;;;;;6.22;2.25;;;34.10;1.00;;;;;;4974167;28;20235;-71
2023/10/03 06:35:46;;;;;;;5.43;2.50;;;34.20;1.00;;;;;;4974880;28;20645;-70
2023/10/03 06:38:17;;;;;;;5.70;2.15;;;34.20;1.00;;;;;;4974221;28;20645;-72
2023/10/03 06:40:46;;;;;;;11.00;2.88;;;34.20;1.00;;;;;;4993674;28;20207;-72
2023/10/03 06:43:17;;;;;;;10.07;3.97;;;34.10;1.00;;;;;;4995512;28;20186;-72
2023/10/03 06:45:45;;;;;;;3.17;1.73;;;34.10;1.00;;;;;;5012720;28;20197;-72
2023/10/03 06:48:14;;;;;;;4.68;2.08;;;33.90;1.00;;;;;;5012861;28;20204;-71
2023/10/03 06:50:48;;;;;;;5.53;2.22;;;33.80;1.00;;;;;;4987777;28;20659;-72
2023/10/03 06:53:18;;;;;;;9.70;2.20;;;33.70;1.00;;;;;;4992839;28;20206;-72
2023/10/03 06:55:51;;;;;;;8.40;2.08;;;33.60;1.00;;;;;;4983413;28;20187;-71
2023/10/03 06:58:19;;;;;;;5.10;1.83;;;33.50;1.00;;;;;;4973832;28;20655;-72
2023/10/03 07:00:47;;;;;;;10.05;2.38;;;33.60;1.00;;;;;;4973568;28;20207;-72
2023/10/03 07:03:19;;;;;;;4.35;2.50;;;33.50;1.00;;;;;;4973830;28;20279;-71
2023/10/03 07:05:47;;;;;;;6.43;1.92;;;33.30;1.00;;;;;;4993043;28;20701;-72
2023/10/03 07:08:14;;;;;;;5.07;2.38;;;33.30;1.00;;;;;;5012264;28;20184;-72
2023/10/03 07:10:43;;;;;;;6.85;2.55;;;33.20;1.00;;;;;;5010128;28;20182;-72
2023/10/03 07:13:12;;;;;;;5.72;2.30;;;33.10;1.00;;;;;;5012628;28;20586;-73
2023/10/03 07:15:42;;;;;;;3.67;2.25;;;33.00;1.00;;;;;;5011453;28;20206;-71
2023/10/03 07:18:11;;;;;;;5.35;2.20;;;33.00;1.00;;;;;;4995324;28;20599;-71
2023/10/03 07:20:40;;;;;;;6.07;2.85;;;32.80;1.00;;;;;;5012316;28;20181;-71
2023/10/03 07:23:12;;;;;;;6.10;2.33;;;32.70;1.00;;;;;;4994550;28;20190;-71
2023/10/03 07:25:41;;;;;;;5.13;2.28;;;32.80;1.00;;;;;;4987371;28;20237;-71
2023/10/03 07:28:10;;;;;;;8.40;2.67;;;32.70;1.00;;;;;;5011835;28;20181;-72
2023/10/03 07:30:41;;;;;;;6.35;2.28;;;32.50;1.00;;;;;;4992418;28;20652;-73
2023/10/03 07:33:16;;;;;;;6.07;2.60;;;32.50;1.00;;;;;;4974981;28;20219;-72
2023/10/03 07:35:44;;;;;;;4.85;2.40;;;32.40;1.00;;;;;;4975252;28;20244;-69
2023/10/03 07:38:15;;;;;;;9.45;2.70;;;32.30;1.00;;;;;;4991970;28;20605;-69
2023/10/03 07:40:47;;;;;;;5.30;2.28;;;32.20;1.00;;;;;;4992639;28;20179;-71
2023/10/03 07:43:17;;;;;;;7.05;2.67;;;32.20;1.00;;;;;;4992471;28;20261;-72
2023/10/03 07:45:47;;;;;;;6.35;2.60;;;32.00;1.00;;;;;;4974358;28;20290;-71
2023/10/03 07:48:15;;;;;;;3.60;2.25;;;32.00;1.00;;;;;;4975953;28;20223;-70
2023/10/03 07:50:45;;;;;;;9.30;2.15;;;31.80;1.00;;;;;;5002547;28;20190;-71
2023/10/03 07:53:17;;;;;;;8.48;2.53;;;31.80;1.00;;;;;;5004247;28;20601;-71
2023/10/03 07:55:46;;;;;;;6.25;2.50;;;31.80;1.00;;;;;;4987253;28;20226;-70
2023/10/03 07:58:20;;;;;;;3.78;2.47;;;31.60;1.00;;;;;;4974950;28;20182;-69
2023/10/03 08:00:50;;;;;;;6.60;2.40;;;31.60;1.00;;;;;;4992046;28;20181;-71
2023/10/03 08:03:22;;;;;;;5.72;2.55;;;31.40;1.00;;;;;;4987298;28;20195;-72
2023/10/03 08:06:03;;;;;;;4.20;2.35;;;31.40;1.00;;;;;;4956484;28;20214;-73
2023/10/03 08:08:34;;;;;;;8.30;2.55;;;31.30;1.00;;;;;;4972306;28;20560;-72
2023/10/03 08:11:06;;;;;;;5.50;2.50;;;31.20;1.00;;;;;;4960166;28;20210;-72
2023/10/03 08:13:39;;;;;;;6.10;2.90;;;31.20;1.00;;;;;;4975063;28;20218;-71
2023/10/03 08:16:07;;;;;;;7.43;3.00;;;31.00;1.00;;;;;;4956490;28;20187;-73
2023/10/03 08:18:36;;;;;;;7.03;2.88;;;31.00;1.00;;;;;;4955355;28;20184;-73
2023/10/03 08:21:04;;;;;;;6.40;2.53;;;31.00;1.00;;;;;;4977225;28;20182;-71
2023/10/03 08:23:37;;;;;;;5.25;2.38;;;30.90;1.00;;;;;;4992430;28;20177;-73
2023/10/03 08:26:05;;;;;;;6.95;2.80;;;30.80;1.00;;;;;;4991898;28;20264;-73
2023/10/03 08:28:38;;;;;;;4.07;2.40;;;30.80;1.00;;;;;;4995377;28;20570;-73
2023/10/03 08:31:09;;;;;;;4.70;3.08;;;30.90;1.00;;;;;;4993385;28;20182;-69
2023/10/03 08:33:36;;;;;;;8.95;2.75;;;30.70;1.00;;;;;;4961061;28;20261;-72
2023/10/03 08:36:14;;;;;;;5.80;3.07;;;30.60;1.00;;;;;;4977967;28;20178;-71
2023/10/03 08:38:45;;;;;;;3.00;2.40;;;30.40;1.00;;;;;;4992639;28;20190;-72
2023/10/03 08:41:20;;;;;;;5.73;2.83;;;30.30;1.00;;;;;;4997127;28;20648;-68
2023/10/03 08:43:54;;;;;;;10.40;2.40;;;30.20;1.00;;;;;;4980211;28;20186;-73
2023/10/03 08:46:25;;;;;;;6.23;2.87;;;30.20;1.00;;;;;;4990226;28;20179;-69
2023/10/03 08:49:00;;;;;;;2.58;2.20;;;30.20;1.00;;;;;;4966967;28;20190;-72
2023/10/03 08:51:33;;;;;;;7.00;2.65;;;30.10;1.00;;;;;;4977960;28;20691;-73
2023/10/03 08:54:13;;;;;;;4.27;2.33;;;30.00;1.00;;;;;;4977856;28;20233;-70
2023/10/03 08:56:41;;;;;;;5.10;2.37;;;30.10;1.00;;;;;;4977826;28;20233;-73
2023/10/03 08:59:15;;;;;;;5.40;2.67;;;30.20;1.00;;;;;;4977626;28;20653;-69
2023/10/03 09:01:45;;;;;;;4.33;2.67;;;30.10;1.00;;;;;;4977751;28;20183;-71
2023/10/03 09:04:18;;;;;;;7.93;2.67;;;30.10;1.00;;;;;;4977956;28;20189;-69
2023/10/03 09:06:50;;;;;;;4.17;2.53;;;30.00;1.00;;;;;;4977624;28;20190;-71
2023/10/03 09:09:19;;;;;;;4.93;2.70;;;29.80;1.00;;;;;;4993761;28;20213;-73
2023/10/03 09:11:51;;;;;;;6.78;3.05;;;29.60;1.00;;;;;;4993980;28;20315;-68
2023/10/03 09:14:21;;;;;;;4.73;2.47;;;29.40;1.00;;;;;;4996961;28;20313;-72
2023/10/03 09:16:54;;;;;;;5.80;3.23;;;29.30;1.00;;;;;;4996597;28;20273;-72
2023/10/03 09:19:41;;;;;;;9.93;2.90;;;29.20;1.00;;;;;;4979775;28;20282;-66
2023/10/03 09:22:09;;;;;;;4.53;2.53;;;29.10;1.60;;;;;;4979450;28;20178;-69
2023/10/03 09:24:43;;;;;;;8.17;2.20;;;28.90;1.60;;;;;;4991194;28;20226;-68
2023/10/03 09:27:18;;;;;;;4.50;2.57;;;28.90;1.00;;;;;;4994145;28;20182;-69
2023/10/03 09:29:49;;;;;;;7.23;2.40;;;28.70;1.90;;;;;;4996689;28;20178;-72
2023/10/03 09:32:19;;;;;;;6.43;2.00;;;28.60;1.00;;;;;;4979227;28;20217;-68
2023/10/03 09:35:09;;;;;;;5.80;2.10;;;28.70;1.00;;;;;;4973603;28;20178;-68
2023/10/03 09:37:45;;;;;;;5.47;2.47;;;28.50;1.00;;;;;;4963106;28;20321;-74
2023/10/03 09:40:19;;;;;;;4.47;2.73;;;28.60;1.00;;;;;;4960443;28;20190;-72
2023/10/03 09:42:50;;;;;;;3.90;2.77;;;28.70;1.00;;;;;;4976977;28;20179;-72
2023/10/03 09:45:29;;;;;;;10.67;2.50;;;28.70;1.40;;;;;;4967218;28;20206;-72
2023/10/03 09:48:05;;;;;;;7.83;3.30;;;28.50;1.30;;;;;;4959745;28;20183;-72
2023/10/03 09:50:35;;;;;;;5.90;2.97;;;28.40;1.40;;;;;;4976958;28;20193;-72
2023/10/03 09:53:06;;;;;;;9.00;2.87;;;28.40;1.80;;;;;;4976853;28;20211;-73
2023/10/03 09:55:41;;;;;;;5.53;3.33;;;28.40;2.00;;;;;;4963200;28;20183;-71
2023/10/03 09:58:10;;;;;;;7.60;3.07;;;28.20;2.80;;;;;;4976499;28;20202;-71
2023/10/03 10:00:55;;;;;;;7.67;2.70;;;28.20;3.40;;;;;;4981178;28;20187;-72
2023/10/03 10:03:26;;;;;;;6.80;2.87;;;28.30;4.10;;;;;;4996319;28;20206;-72
2023/10/03 10:06:14;;;;;;;4.93;3.20;;;28.50;2.70;;;;;;4996055;28;20536;-72
2023/10/03 10:08:48;;;;;;;5.33;3.23;;;28.70;3.50;;;;;;4996021;28;20176;-71
2023/10/03 10:11:16;;;;;;;9.77;3.07;;;28.40;4.30;;;;;;4977402;28;20227;-71
2023/10/03 10:14:10;;;;;;;5.60;2.70;;;28.20;5.40;;;;;;4959648;28;20273;-72
2023/10/03 10:17:10;;;;;;;4.07;2.50;;;28.00;5.90;;;;;;4945380;28;20981;-68
2023/10/03 10:20:37;;;;;;;5.30;3.10;;;27.90;5.00;;;;;;4972383;28;20222;-70
2023/10/03 10:23:06;;;;;;;5.43;2.83;;;27.80;4.60;;;;;;4893916;29;20190;-73
2023/10/03 10:25:56;;;;;;;6.57;3.37;;;27.70;5.60;;;;;;4895515;29;20240;-71
2023/10/03 10:28:31;;;;;;;4.87;2.43;;;27.70;5.10;;;;;;4942936;28;20198;-70
2023/10/03 10:31:29;;;;;;;4.80;3.00;;;27.60;4.80;;;;;;4972803;28;20190;-70
2023/10/03 10:34:32;;;;;;;6.70;2.70;;;27.50;5.60;;;;;;4974613;28;20223;-72
2023/10/03 10:37:11;;;;;;;4.17;2.90;;;27.20;6.90;;;;;;4966457;28;20237;-73
2023/10/03 10:40:05;;;;;;;9.77;3.10;;;27.10;7.70;;;;;;4973758;28;20194;-72
2023/10/03 10:42:52;;;;;;;7.33;2.83;;;27.00;8.00;;;;;;4970063;28;20668;-73
2023/10/03 10:45:20;;;;;;;6.53;3.30;;;26.90;8.30;;;;;;4954163;28;20624;-72
2023/10/03 10:48:08;;;;;;;9.27;3.47;;;26.90;8.10;;;;;;4954434;28;20565;-71
2023/10/03 10:51:21;;;;;;;8.90;2.80;;;27.10;7.50;;;;;;4964964;28;20201;-72
2023/10/03 10:53:51;;;;;;;8.07;3.10;;;27.50;6.00;;;;;;4973582;28;20219;-72
2023/10/03 10:56:18;;;;;;;5.53;2.77;;;27.50;6.50;;;;;;4960717;28;20188;-71
2023/10/03 10:59:01;;;;;;;5.83;2.97;;;27.40;7.30;;;;;;4954698;28;20180;-71
2023/10/03 11:01:29;;;;;;;8.20;3.07;;;27.30;9.10;;;;;;4954598;28;20207;-73
2023/10/03 11:03:57;;;;;;;9.53;3.53;;;27.10;9.50;;;;;;4963017;28;20210;-70
2023/10/03 11:06:25;;;;;;;9.37;3.13;;;27.00;9.30;;;;;;4957113;28;20208;-70
2023/10/03 11:08:53;;;;;;;13.47;3.17;;;26.90;9.70;;;;;;4954219;28;20262;-71
2023/10/03 11:11:20;;;;;;;10.30;3.87;;;26.90;10.50;;;;;;4954614;28;20243;-70
2023/10/03 11:13:53;;;;;;;11.17;3.80;;;26.80;11.20;;;;;;4954466;28;20954;-74
2023/10/03 11:16:28;;;;;;;11.87;4.63;;;26.70;11.20;;;;;;4952889;29;20175;-67
2023/10/03 11:18:59;;;;;;;12.50;4.20;;;26.70;11.10;;;;;;4967980;28;20187;-71
2023/10/03 11:21:30;;;;;;;10.83;3.83;;;26.80;11.70;;;;;;4953490;28;20240;-72
2023/10/03 11:24:23;;;;;;;9.60;2.93;;;26.70;12.70;;;;;;4952942;28;20191;-74
2023/10/03 11:26:53;;;;;;;6.00;3.37;;;26.50;15.20;;;;;;4970939;28;20728;-72
2023/10/03 11:29:48;;;;;;;8.93;2.90;;;26.40;13.70;;;;;;4978762;28;20199;-74
2023/10/03 11:32:32;;;;;;;7.33;3.13;;;26.30;13.60;;;;;;4992531;28;20217;-72
2023/10/03 11:35:13;;;;;;;6.20;2.60;;;26.20;15.10;;;;;;4993155;28;20232;-74
2023/10/03 11:37:44;;;;;;;4.97;3.20;;;26.10;15.20;;;;;;4992673;28;20186;-71
2023/10/03 11:40:20;;;;;;;9.40;3.07;;;26.10;13.70;;;;;;4992517;28;20192;-72
2023/10/03 11:43:01;;;;;;;7.37;2.90;;;26.10;15.90;;;;;;4992380;28;20186;-72
2023/10/03 11:45:29;;;;;;;5.20;2.83;;;26.10;16.20;;;;;;4974774;28;20551;-68
2023/10/03 11:48:17;;;;;;;5.47;3.10;;;26.00;15.40;;;;;;4991854;28;20211;-72
2023/10/03 11:50:47;;;;;;;7.57;3.00;;;26.00;13.60;;;;;;4991663;28;20656;-72
2023/10/03 11:53:18;;;;;;;4.07;2.37;;;26.20;13.20;;;;;;4974699;28;20264;-68
2023/10/03 11:55:46;;;;;;;6.57;2.50;;;26.10;14.20;;;;;;4979399;28;20249;-69
2023/10/03 11:58:13;;;;;;;5.37;2.50;;;26.10;13.70;;;;;;4973463;28;20199;-72
2023/10/03 12:00:44;;;;;;;4.10;2.43;;;26.10;14.40;;;;;;4974233;28;20684;-72
2023/10/03 12:03:12;;;;;;;6.20;2.43;;;26.10;14.00;;;;;;4971232;28;20194;-70
2023/10/03 12:05:42;;;;;;;7.40;2.60;;;26.10;15.00;;;;;;4993022;28;20652;-72
2023/10/03 12:08:10;;;;;;;4.03;2.40;;;26.10;13.50;;;;;;4993052;28;20194;-72
2023/10/03 12:10:40;;;;;;;6.00;2.60;;;26.00;13.60;;;;;;4976347;28;20206;-74
2023/10/03 12:13:21;;;;;;;5.97;2.50;;;25.80;13.80;;;;;;4993700;28;20234;-72
2023/10/03 12:15:55;;;;;;;6.23;2.47;;;25.70;14.20;;;;;;4993559;28;20277;-69
2023/10/03 12:18:26;;;;;;;3.17;2.17;;;25.70;13.60;;;;;;4991129;28;20208;-73
2023/10/03 12:20:54;;;;;;;5.23;2.50;;;25.60;14.00;;;;;;4967043;28;20203;-71
2023/10/03 12:23:22;;;;;;;6.00;2.73;;;25.40;14.90;;;;;;4990831;28;20225;-71
2023/10/03 12:25:50;;;;;;;4.33;2.17;;;25.20;15.40;;;;;;4980696;28;20230;-70
2023/10/03 12:28:17;;;;;;;5.90;2.60;;;25.10;16.90;;;;;;4993508;28;20214;-68
2023/10/03 12:30:45;;;;;;;3.03;2.20;;;25.00;16.70;;;;;;4993829;28;20183;-72
2023/10/03 12:33:16;;;;;;;4.03;2.30;;;25.00;16.10;;;;;;4991346;28;20233;-71
2023/10/03 12:35:45;;;;;;;4.30;2.40;;;25.20;16.30;;;;;;4992505;28;20695;-71
2023/10/03 12:38:16;;;;;;;6.83;2.13;;;25.40;16.10;;;;;;4993012;28;20574;-70
2023/10/03 12:40:47;;;;;;;5.80;2.60;;;25.50;15.30;;;;;;4993860;28;20322;-69
2023/10/03 12:43:14;;;;;;;4.87;2.40;;;25.60;15.00;;;;;;4969126;28;20199;-71
2023/10/03 12:45:42;;;;;;;5.53;2.27;;;25.80;13.00;;;;;;4956781;28;20625;-71
2023/10/03 12:48:12;;;;;;;4.20;1.97;;;25.90;13.20;;;;;;4956577;28;20222;-68
2023/10/03 12:50:44;;;;;;;7.20;2.17;;;26.00;12.20;;;;;;4973803;28;20183;-69
2023/10/03 12:53:15;;;;;;;5.03;2.00;;;26.10;11.00;;;;;;4967404;28;20228;-71
2023/10/03 12:55:43;;;;;;;2.20;1.70;;;26.20;10.50;;;;;;4992716;28;20186;-70
2023/10/03 12:58:12;;;;;;;6.07;2.70;;;26.10;10.80;;;;;;4992926;28;20199;-72
2023/10/03 13:00:42;;;;;;;3.20;2.23;;;26.10;10.00;;;;;;4993187;28;20221;-71
2023/10/03 13:03:10;;;;;;;4.40;2.23;;;26.20;10.40;;;;;;4993262;28;20198;-72
2023/10/03 13:05:41;;;;;;;5.77;2.17;;;26.20;9.80;;;;;;4991939;28;20225;-69
2023/10/03 13:08:08;;;;;;;2.70;1.80;;;26.30;9.40;;;;;;4973958;28;20184;-71
2023/10/03 13:10:41;;;;;;;4.40;2.27;;;26.20;11.20;;;;;;4973706;28;20187;-69
2023/10/03 13:13:09;;;;;;;3.23;2.00;;;26.00;10.80;;;;;;4980112;28;20226;-70
2023/10/03 13:15:37;;;;;;;7.23;2.00;;;26.00;12.40;;;;;;4992744;28;20186;-68
2023/10/03 13:18:05;;;;;;;4.63;2.23;;;25.80;12.60;;;;;;4977413;28;20191;-67
2023/10/03 13:20:36;;;;;;;4.23;1.90;;;25.80;13.10;;;;;;4996001;28;20262;-70
2023/10/03 13:23:04;;;;;;;3.00;2.07;;;25.70;12.50;;;;;;4995866;28;20194;-72